createdAt,value
2018-06-03T00:00:55.386Z,100.0
2018-06-03T00:01:57.017Z,100.0
2018-06-03T00:02:58.619Z,100.0
2018-06-03T00:04:00.750Z,100.0
2018-06-03T00:05:02.378Z,100.0
2018-06-03T00:06:05.021Z,100.0
2018-06-03T00:07:07.720Z,100.0
2018-06-03T00:08:10.712Z,100.0
2018-06-03T00:09:13.672Z,100.0
2018-06-03T00:10:17.024Z,100.0
2018-06-03T00:11:19.830Z,100.0
2018-06-03T00:12:22.235Z,100.0
2018-06-03T00:13:24.610Z,100.0
2018-06-03T00:14:27.028Z,100.0
2018-06-03T00:15:28.924Z,100.0
2018-06-03T00:16:31.037Z,100.0
2018-06-03T00:17:32.647Z,100.0
2018-06-03T00:18:34.938Z,100.0
2018-06-03T00:19:37.370Z,100.0
2018-06-03T00:20:39.485Z,100.0
2018-06-03T00:21:41.612Z,100.0
2018-06-03T00:22:43.233Z,100.0
2018-06-03T00:23:44.847Z,100.0
2018-06-03T00:24:46.877Z,100.0
2018-06-03T00:25:49.024Z,100.0
2018-06-03T00:26:50.870Z,100.0
2018-06-03T00:27:52.664Z,100.0
2018-06-03T00:28:54.498Z,100.0
2018-06-03T00:29:56.207Z,100.0
2018-06-03T00:30:58.216Z,100.0
2018-06-03T00:32:00.474Z,100.0
2018-06-03T00:33:02.502Z,100.0
2018-06-03T00:34:04.939Z,100.0
2018-06-03T00:35:07.141Z,100.0
2018-06-03T00:36:09.403Z,100.0
2018-06-03T00:37:11.265Z,100.0
2018-06-03T00:38:13.210Z,100.0
2018-06-03T00:39:15.106Z,100.0
2018-06-03T00:40:17.448Z,100.0
2018-06-03T00:41:19.456Z,100.0
2018-06-03T00:42:21.592Z,100.0
2018-06-03T00:43:23.946Z,100.0
2018-06-03T00:44:25.560Z,100.0
2018-06-03T00:45:27.184Z,100.0
2018-06-03T00:46:29.449Z,100.0
2018-06-03T00:47:31.808Z,100.0
2018-06-03T00:48:33.428Z,100.0
2018-06-03T00:49:35.075Z,100.0
2018-06-03T00:50:36.674Z,100.0
2018-06-03T00:51:38.289Z,100.0
2018-06-03T00:52:39.911Z,100.0
2018-06-03T00:53:41.533Z,100.0
2018-06-03T00:54:43.145Z,100.0
2018-06-03T00:55:44.765Z,100.0
2018-06-03T00:56:46.378Z,100.0
2018-06-03T00:57:47.995Z,100.0
2018-06-03T00:58:49.612Z,100.0
2018-06-03T00:59:51.234Z,100.0
2018-06-03T01:00:52.857Z,100.0
2018-06-03T01:01:54.469Z,100.0
2018-06-03T01:02:56.090Z,100.0
2018-06-03T01:03:57.714Z,100.0
2018-06-03T01:04:59.332Z,100.0
2018-06-03T01:06:00.954Z,100.0
2018-06-03T01:07:02.571Z,100.0
2018-06-03T01:08:04.187Z,100.0
2018-06-03T01:09:05.809Z,100.0
2018-06-03T01:10:07.419Z,100.0
2018-06-03T01:11:09.041Z,100.0
2018-06-03T01:12:10.657Z,100.0
2018-06-03T01:13:12.276Z,100.0
2018-06-03T01:14:13.892Z,100.0
2018-06-03T01:15:15.509Z,100.0
2018-06-03T01:16:17.130Z,100.0
2018-06-03T01:17:18.749Z,100.0
2018-06-03T01:18:20.368Z,100.0
2018-06-03T01:19:21.986Z,100.0
2018-06-03T01:20:23.603Z,100.0
2018-06-03T01:21:25.226Z,100.0
2018-06-03T01:22:26.842Z,100.0
2018-06-03T01:23:28.457Z,100.0
2018-06-03T01:24:30.076Z,100.0
2018-06-03T01:25:31.693Z,100.0
2018-06-03T01:26:33.312Z,100.0
2018-06-03T01:27:34.936Z,100.0
2018-06-03T01:28:36.550Z,100.0
2018-06-03T01:29:38.167Z,100.0
2018-06-03T01:30:39.790Z,100.0
2018-06-03T01:31:41.405Z,100.0
2018-06-03T01:32:43.028Z,100.0
2018-06-03T01:33:44.646Z,100.0
2018-06-03T01:34:46.261Z,100.0
2018-06-03T01:35:47.885Z,100.0
2018-06-03T01:36:49.500Z,100.0
2018-06-03T01:37:51.117Z,100.0
2018-06-03T01:38:52.739Z,100.0
2018-06-03T01:39:54.361Z,100.0
2018-06-03T01:40:55.981Z,100.0
2018-06-03T01:41:57.601Z,100.0
2018-06-03T01:42:59.214Z,100.0
2018-06-03T01:44:00.836Z,100.0
2018-06-03T01:45:02.447Z,100.0
2018-06-03T01:46:04.068Z,100.0
2018-06-03T01:47:05.683Z,100.0
2018-06-03T01:48:07.298Z,100.0
2018-06-03T01:49:08.921Z,100.0
2018-06-03T01:50:10.540Z,100.0
2018-06-03T01:51:12.162Z,100.0
2018-06-03T01:52:13.801Z,100.0
2018-06-03T01:53:15.391Z,100.0
2018-06-03T01:54:17.020Z,100.0
2018-06-03T01:55:18.637Z,100.0
2018-06-03T01:56:20.252Z,100.0
2018-06-03T01:57:21.869Z,100.0
2018-06-03T01:58:23.495Z,100.0
2018-06-03T01:59:25.114Z,100.0
2018-06-03T02:00:26.737Z,100.0
2018-06-03T02:01:28.355Z,100.0
2018-06-03T02:02:29.974Z,100.0
2018-06-03T02:03:31.597Z,100.0
2018-06-03T02:04:33.214Z,100.0
2018-06-03T02:05:34.845Z,100.0
2018-06-03T02:06:36.456Z,100.0
2018-06-03T02:07:38.072Z,100.0
2018-06-03T02:08:39.743Z,100.0
2018-06-03T02:09:41.310Z,100.0
2018-06-03T02:10:42.933Z,100.0
2018-06-03T02:11:44.551Z,100.0
2018-06-03T02:12:46.167Z,100.0
2018-06-03T02:13:47.782Z,100.0
2018-06-03T02:14:49.402Z,100.0
2018-06-03T02:15:51.025Z,100.0
2018-06-03T02:16:52.637Z,100.0
2018-06-03T02:17:54.261Z,100.0
2018-06-03T02:18:55.889Z,100.0
2018-06-03T02:19:57.503Z,100.0
2018-06-03T02:20:59.116Z,100.0
2018-06-03T02:22:00.736Z,100.0
2018-06-03T02:23:02.353Z,100.0
2018-06-03T02:24:03.973Z,100.0
2018-06-03T02:25:05.596Z,100.0
2018-06-03T02:26:07.214Z,100.0
2018-06-03T02:27:08.836Z,100.0
2018-06-03T02:28:10.451Z,100.0
2018-06-03T02:29:12.071Z,100.0
2018-06-03T02:30:13.686Z,100.0
2018-06-03T02:31:15.309Z,100.0
2018-06-03T02:32:16.924Z,100.0
2018-06-03T02:33:18.548Z,100.0
2018-06-03T02:34:20.164Z,100.0
2018-06-03T02:35:21.785Z,100.0
2018-06-03T02:36:23.400Z,100.0
2018-06-03T02:37:25.023Z,100.0
2018-06-03T02:38:26.638Z,100.0
2018-06-03T02:39:28.256Z,100.0
2018-06-03T02:40:30.583Z,100.0
2018-06-03T02:41:32.197Z,100.0
2018-06-03T02:42:33.815Z,100.0
2018-06-03T02:43:35.436Z,100.0
2018-06-03T02:44:37.051Z,100.0
2018-06-03T02:45:38.674Z,100.0
2018-06-03T02:46:40.305Z,100.0
2018-06-03T02:47:41.912Z,100.0
2018-06-03T02:48:43.529Z,100.0
2018-06-03T02:49:45.143Z,100.0
2018-06-03T02:50:46.764Z,100.0
2018-06-03T02:51:48.381Z,100.0
2018-06-03T02:52:50.005Z,100.0
2018-06-03T02:53:51.623Z,100.0
2018-06-03T02:54:53.245Z,100.0
2018-06-03T02:55:54.859Z,100.0
2018-06-03T02:56:56.478Z,100.0
2018-06-03T02:57:58.098Z,100.0
2018-06-03T02:58:59.715Z,100.0
2018-06-03T03:00:01.339Z,100.0
2018-06-03T03:01:02.961Z,100.0
2018-06-03T03:02:04.584Z,100.0
2018-06-03T03:03:06.200Z,100.0
2018-06-03T03:04:07.818Z,100.0
2018-06-03T03:05:09.436Z,100.0
2018-06-03T03:06:11.059Z,100.0
2018-06-03T03:07:12.683Z,100.0
2018-06-03T03:08:14.299Z,100.0
2018-06-03T03:09:15.920Z,100.0
2018-06-03T03:10:17.533Z,100.0
2018-06-03T03:11:19.155Z,100.0
2018-06-03T03:12:20.777Z,100.0
2018-06-03T03:13:22.393Z,100.0
2018-06-03T03:14:24.010Z,100.0
2018-06-03T03:15:25.635Z,100.0
2018-06-03T03:16:27.256Z,100.0
2018-06-03T03:17:28.889Z,100.0
2018-06-03T03:18:30.502Z,100.0
2018-06-03T03:19:32.127Z,100.0
2018-06-03T03:20:33.745Z,100.0
2018-06-03T03:21:35.363Z,100.0
2018-06-03T03:22:36.993Z,100.0
2018-06-03T03:23:38.612Z,100.0
2018-06-03T03:24:40.237Z,100.0
2018-06-03T03:25:41.858Z,100.0
2018-06-03T03:26:43.476Z,100.0
2018-06-03T03:27:45.097Z,100.0
2018-06-03T03:28:46.724Z,100.0
2018-06-03T03:29:48.344Z,100.0
2018-06-03T03:30:49.971Z,100.0
2018-06-03T03:31:51.594Z,100.0
2018-06-03T03:32:53.213Z,100.0
2018-06-03T03:33:54.829Z,100.0
2018-06-03T03:34:56.451Z,100.0
2018-06-03T03:35:58.078Z,100.0
2018-06-03T03:36:59.696Z,100.0
2018-06-03T03:38:01.325Z,100.0
2018-06-03T03:39:02.942Z,100.0
2018-06-03T03:40:04.566Z,100.0
2018-06-03T03:41:06.188Z,100.0
2018-06-03T03:42:07.815Z,100.0
2018-06-03T03:43:09.432Z,100.0
2018-06-03T03:44:11.054Z,100.0
2018-06-03T03:45:12.680Z,100.0
2018-06-03T03:46:14.297Z,100.0
2018-06-03T03:47:15.922Z,100.0
2018-06-03T03:48:17.545Z,100.0
2018-06-03T03:49:19.170Z,100.0
2018-06-03T03:50:20.794Z,100.0
2018-06-03T03:51:22.414Z,100.0
2018-06-03T03:52:24.037Z,100.0
2018-06-03T03:53:25.656Z,100.0
2018-06-03T03:54:27.273Z,100.0
2018-06-03T03:55:28.896Z,100.0
2018-06-03T03:56:30.516Z,100.0
2018-06-03T03:57:32.142Z,100.0
2018-06-03T03:58:33.767Z,100.0
2018-06-03T03:59:35.388Z,100.0
2018-06-03T04:00:37.013Z,100.0
2018-06-03T04:01:38.633Z,100.0
2018-06-03T04:02:40.256Z,100.0
2018-06-03T04:03:41.882Z,100.0
2018-06-03T04:04:43.515Z,100.0
2018-06-03T04:05:45.133Z,100.0
2018-06-03T04:06:46.752Z,100.0
2018-06-03T04:07:48.378Z,100.0
2018-06-03T04:08:50.002Z,100.0
2018-06-03T04:09:51.626Z,100.0
2018-06-03T04:10:53.252Z,100.0
2018-06-03T04:11:54.872Z,100.0
2018-06-03T04:12:56.505Z,100.0
2018-06-03T04:13:58.124Z,100.0
2018-06-03T04:14:59.743Z,100.0
2018-06-03T04:16:01.368Z,100.0
2018-06-03T04:17:02.989Z,100.0
2018-06-03T04:18:04.617Z,100.0
2018-06-03T04:19:06.240Z,100.0
2018-06-03T04:20:07.861Z,100.0
2018-06-03T04:21:09.491Z,100.0
2018-06-03T04:22:11.111Z,100.0
2018-06-03T04:23:12.733Z,100.0
2018-06-03T04:24:14.353Z,100.0
2018-06-03T04:25:15.989Z,100.0
2018-06-03T04:26:17.605Z,100.0
2018-06-03T04:27:19.234Z,100.0
2018-06-03T04:28:20.857Z,100.0
2018-06-03T04:29:22.477Z,100.0
2018-06-03T04:30:24.098Z,100.0
2018-06-03T04:31:25.724Z,100.0
2018-06-03T04:32:27.345Z,100.0
2018-06-03T04:33:28.969Z,100.0
2018-06-03T04:34:30.596Z,100.0
2018-06-03T04:35:32.219Z,100.0
2018-06-03T04:36:33.844Z,100.0
2018-06-03T04:37:35.470Z,100.0
2018-06-03T04:38:37.090Z,100.0
2018-06-03T04:39:38.710Z,100.0
2018-06-03T04:40:40.335Z,100.0
2018-06-03T04:41:41.963Z,100.0
2018-06-03T04:42:43.587Z,100.0
2018-06-03T04:43:45.215Z,100.0
2018-06-03T04:44:46.835Z,100.0
2018-06-03T04:45:48.459Z,100.0
2018-06-03T04:46:50.084Z,100.0
2018-06-03T04:47:51.712Z,100.0
2018-06-03T04:48:53.335Z,100.0
2018-06-03T04:49:54.964Z,100.0
2018-06-03T04:50:56.583Z,100.0
2018-06-03T04:51:58.201Z,100.0
2018-06-03T04:52:59.833Z,100.0
2018-06-03T04:54:01.457Z,100.0
2018-06-03T04:55:03.091Z,100.0
2018-06-03T04:56:04.705Z,100.0
2018-06-03T04:57:06.331Z,100.0
2018-06-03T04:58:07.952Z,100.0
2018-06-03T04:59:09.582Z,100.0
2018-06-03T05:00:11.209Z,100.0
2018-06-03T05:01:12.835Z,100.0
2018-06-03T05:02:14.461Z,100.0
2018-06-03T05:03:16.084Z,100.0
2018-06-03T05:04:17.709Z,100.0
2018-06-03T05:05:19.334Z,100.0
2018-06-03T05:06:20.960Z,100.0
2018-06-03T05:07:22.581Z,100.0
2018-06-03T05:08:24.208Z,100.0
2018-06-03T05:09:25.833Z,100.0
2018-06-03T05:10:27.454Z,100.0
2018-06-03T05:11:29.086Z,100.0
2018-06-03T05:12:30.706Z,100.0
2018-06-03T05:13:32.335Z,100.0
2018-06-03T05:14:33.961Z,100.0
2018-06-03T05:15:35.583Z,100.0
2018-06-03T05:16:37.203Z,100.0
2018-06-03T05:17:38.831Z,100.0
2018-06-03T05:18:40.454Z,100.0
2018-06-03T05:19:42.077Z,100.0
2018-06-03T05:20:43.704Z,100.0
2018-06-03T05:21:45.329Z,100.0
2018-06-03T05:22:46.955Z,100.0
2018-06-03T05:23:48.578Z,100.0
2018-06-03T05:24:50.204Z,100.0
2018-06-03T05:25:51.834Z,100.0
2018-06-03T05:26:53.457Z,100.0
2018-06-03T05:27:55.084Z,100.0
2018-06-03T05:28:56.699Z,100.0
2018-06-03T05:29:58.324Z,100.0
2018-06-03T05:30:59.963Z,100.0
2018-06-03T05:32:01.574Z,100.0
2018-06-03T05:33:03.271Z,100.0
2018-06-03T05:34:04.846Z,100.0
2018-06-03T05:35:06.467Z,100.0
2018-06-03T05:36:08.090Z,100.0
2018-06-03T05:37:09.714Z,100.0
2018-06-03T05:38:11.344Z,100.0
2018-06-03T05:39:12.971Z,100.0
2018-06-03T05:40:14.597Z,100.0
2018-06-03T05:41:16.220Z,100.0
2018-06-03T05:42:17.845Z,100.0
2018-06-03T05:43:19.465Z,100.0
2018-06-03T05:44:21.096Z,100.0
2018-06-03T05:45:22.725Z,100.0
2018-06-03T05:46:24.362Z,100.0
2018-06-03T05:47:25.985Z,100.0
2018-06-03T05:48:27.611Z,100.0
2018-06-03T05:49:29.230Z,100.0
2018-06-03T05:50:30.860Z,100.0
2018-06-03T05:51:32.487Z,100.0
2018-06-03T05:52:34.115Z,100.0
2018-06-03T05:53:35.743Z,100.0
2018-06-03T05:54:37.370Z,100.0
2018-06-03T05:55:38.989Z,100.0
2018-06-03T05:56:40.620Z,100.0
2018-06-03T05:57:42.240Z,100.0
2018-06-03T05:58:43.869Z,100.0
2018-06-03T05:59:45.500Z,100.0
2018-06-03T06:00:47.120Z,100.0
2018-06-03T06:01:48.746Z,100.0
2018-06-03T06:02:50.369Z,100.0
2018-06-03T06:03:51.993Z,100.0
2018-06-03T06:04:53.620Z,100.0
2018-06-03T06:05:55.251Z,100.0
2018-06-03T06:06:56.878Z,100.0
2018-06-03T06:07:58.502Z,100.0
2018-06-03T06:09:00.133Z,100.0
2018-06-03T06:10:01.750Z,100.0
2018-06-03T06:11:03.376Z,100.0
2018-06-03T06:12:05.009Z,100.0
2018-06-03T06:13:06.622Z,100.0
2018-06-03T06:14:08.247Z,100.0
2018-06-03T06:15:09.870Z,100.0
2018-06-03T06:16:11.495Z,100.0
2018-06-03T06:17:13.122Z,100.0
2018-06-03T06:18:14.753Z,100.0
2018-06-03T06:19:16.375Z,100.0
2018-06-03T06:20:18.000Z,100.0
2018-06-03T06:21:19.627Z,100.0
2018-06-03T06:22:21.248Z,100.0
2018-06-03T06:23:22.878Z,100.0
2018-06-03T06:24:24.498Z,100.0
2018-06-03T06:25:26.123Z,100.0
2018-06-03T06:26:27.744Z,100.0
2018-06-03T06:27:29.375Z,100.0
2018-06-03T06:28:30.996Z,100.0
2018-06-03T06:29:32.624Z,100.0
2018-06-03T06:30:34.253Z,100.0
2018-06-03T06:31:35.876Z,100.0
2018-06-03T06:32:37.511Z,100.0
2018-06-03T06:33:39.133Z,100.0
2018-06-03T06:34:40.781Z,100.0
2018-06-03T06:35:42.380Z,100.0
2018-06-03T06:36:44.004Z,100.0
2018-06-03T06:37:46.115Z,100.0
2018-06-03T06:38:47.744Z,100.0
2018-06-03T06:39:49.369Z,100.0
2018-06-03T06:40:51.032Z,100.0
2018-06-03T06:41:52.616Z,100.0
2018-06-03T06:42:54.271Z,100.0
2018-06-03T06:43:55.900Z,100.0
2018-06-03T06:44:57.524Z,100.0
2018-06-03T06:45:59.153Z,100.0
2018-06-03T06:47:00.776Z,100.0
2018-06-03T06:48:02.416Z,100.0
2018-06-03T06:49:04.046Z,100.0
2018-06-03T06:50:05.694Z,100.0
2018-06-03T06:51:07.300Z,100.0
2018-06-03T06:52:08.929Z,100.0
2018-06-03T06:53:10.561Z,100.0
2018-06-03T06:54:12.176Z,100.0
2018-06-03T06:55:13.797Z,100.0
2018-06-03T06:56:15.427Z,100.0
2018-06-03T06:57:17.101Z,100.0
2018-06-03T06:58:18.701Z,100.0
2018-06-03T06:59:20.305Z,100.0
2018-06-03T07:00:21.936Z,100.0
2018-06-03T07:01:23.560Z,100.0
2018-06-03T07:02:25.184Z,100.0
2018-06-03T07:03:26.814Z,100.0
2018-06-03T07:04:28.436Z,100.0
2018-06-03T07:05:30.062Z,100.0
2018-06-03T07:06:31.700Z,100.0
2018-06-03T07:07:33.321Z,100.0
2018-06-03T07:08:34.937Z,100.0
2018-06-03T07:09:36.560Z,100.0
2018-06-03T07:10:38.183Z,100.0
2018-06-03T07:11:39.815Z,100.0
2018-06-03T07:12:41.441Z,100.0
2018-06-03T07:13:43.067Z,100.0
2018-06-03T07:14:44.697Z,100.0
2018-06-03T07:15:46.325Z,100.0
2018-06-03T07:16:47.947Z,100.0
2018-06-03T07:17:49.575Z,100.0
2018-06-03T07:18:51.208Z,100.0
2018-06-03T07:19:52.833Z,100.0
2018-06-03T07:20:54.467Z,100.0
2018-06-03T07:21:56.095Z,100.0
2018-06-03T07:22:57.720Z,100.0
2018-06-03T07:23:59.346Z,99.9
2018-06-03T07:25:00.981Z,99.8
2018-06-03T07:26:02.614Z,99.7
2018-06-03T07:27:04.233Z,98.9
2018-06-03T07:28:05.859Z,98.4
2018-06-03T07:29:07.486Z,97.2
2018-06-03T07:30:09.106Z,98.0
2018-06-03T07:31:10.731Z,96.3
2018-06-03T07:32:12.363Z,95.6
2018-06-03T07:33:13.989Z,97.1
2018-06-03T07:34:15.619Z,96.5
2018-06-03T07:35:17.244Z,96.0
2018-06-03T07:36:19.754Z,95.5
2018-06-03T07:37:21.354Z,96.8
2018-06-03T07:38:22.980Z,95.8
2018-06-03T07:39:24.612Z,92.5
2018-06-03T07:40:26.553Z,87.7
2018-06-03T07:41:28.096Z,87.0
2018-06-03T07:42:29.728Z,84.4
2018-06-03T07:43:31.383Z,82.2
2018-06-03T07:44:32.983Z,82.3
2018-06-03T07:45:34.616Z,80.2
2018-06-03T07:46:36.242Z,80.6
2018-06-03T07:47:37.879Z,80.6
2018-06-03T07:48:39.510Z,78.6
2018-06-03T07:49:41.137Z,78.8
2018-06-03T07:50:42.775Z,77.6
2018-06-03T07:51:44.397Z,76.9
2018-06-03T07:52:46.024Z,76.5
2018-06-03T07:53:47.659Z,75.4
2018-06-03T07:54:49.287Z,75.2
2018-06-03T07:55:50.923Z,76.6
2018-06-03T07:56:52.563Z,75.4
2018-06-03T07:57:54.198Z,72.5
2018-06-03T07:58:55.849Z,69.7
2018-06-03T07:59:57.476Z,70.6
2018-06-03T08:00:59.105Z,71.9
2018-06-03T08:02:00.736Z,71.3
2018-06-03T08:03:02.369Z,70.1
2018-06-03T08:04:04.007Z,71.1
2018-06-03T08:05:05.631Z,70.2
2018-06-03T08:06:07.269Z,68.0
2018-06-03T08:07:08.901Z,69.8
2018-06-03T08:08:10.527Z,67.9
2018-06-03T08:09:12.169Z,68.9
2018-06-03T08:10:13.800Z,68.5
2018-06-03T08:11:15.433Z,65.3
2018-06-03T08:12:17.071Z,63.6
2018-06-03T08:13:18.699Z,64.8
2018-06-03T08:14:20.336Z,63.8
2018-06-03T08:15:21.971Z,63.7
2018-06-03T08:16:23.606Z,63.9
2018-06-03T08:17:25.240Z,63.3
2018-06-03T08:18:26.876Z,63.0
2018-06-03T08:19:28.524Z,61.6
2018-06-03T08:20:30.152Z,60.7
2018-06-03T08:21:31.790Z,61.7
2018-06-03T08:22:33.424Z,62.2
2018-06-03T08:23:35.065Z,61.4
2018-06-03T08:24:36.695Z,62.6
2018-06-03T08:25:38.327Z,64.1
2018-06-03T08:26:39.964Z,64.8
2018-06-03T08:27:41.593Z,66.2
2018-06-03T08:28:43.227Z,68.1
2018-06-03T08:29:44.876Z,70.3
2018-06-03T08:30:46.496Z,72.2
2018-06-03T08:31:48.131Z,72.6
2018-06-03T08:32:49.762Z,74.2
2018-06-03T08:33:51.389Z,74.9
2018-06-03T08:34:53.023Z,75.0
2018-06-03T08:35:54.651Z,76.5
2018-06-03T08:36:56.279Z,77.2
2018-06-03T08:37:57.909Z,77.2
2018-06-03T08:38:59.551Z,78.6
2018-06-03T08:40:01.178Z,78.9
2018-06-03T08:41:02.812Z,80.0
2018-06-03T08:42:04.444Z,80.8
2018-06-03T08:43:06.064Z,81.3
2018-06-03T08:44:07.700Z,81.8
2018-06-03T08:45:09.325Z,81.3
2018-06-03T08:46:10.967Z,82.4
2018-06-03T08:47:12.594Z,83.7
2018-06-03T08:48:14.223Z,83.6
2018-06-03T08:49:15.849Z,85.3
2018-06-03T08:50:17.475Z,85.0
2018-06-03T08:51:19.108Z,85.9
2018-06-03T08:52:20.732Z,85.5
2018-06-03T08:53:22.364Z,85.6
2018-06-03T08:54:23.997Z,86.4
2018-06-03T08:55:25.617Z,86.6
2018-06-03T08:56:27.249Z,86.8
2018-06-03T08:57:28.871Z,87.2
2018-06-03T08:58:30.495Z,87.3
2018-06-03T08:59:32.129Z,86.9
2018-06-03T09:00:33.812Z,87.5
2018-06-03T09:01:35.389Z,87.9
2018-06-03T09:02:37.012Z,87.9
2018-06-03T09:03:38.640Z,86.7
2018-06-03T09:04:40.272Z,88.0
2018-06-03T09:05:41.896Z,87.9
2018-06-03T09:06:43.526Z,87.6
2018-06-03T09:07:45.162Z,87.2
2018-06-03T09:08:46.789Z,89.4
2018-06-03T09:09:48.421Z,88.3
2018-06-03T09:10:50.045Z,88.3
2018-06-03T09:11:51.670Z,89.3
2018-06-03T09:12:53.293Z,89.2
2018-06-03T09:13:54.943Z,89.1
2018-06-03T09:14:56.569Z,89.6
2018-06-03T09:15:58.204Z,87.7
2018-06-03T09:16:59.825Z,87.8
2018-06-03T09:18:01.452Z,88.3
2018-06-03T09:19:03.074Z,88.0
2018-06-03T09:20:04.701Z,89.3
2018-06-03T09:21:06.326Z,89.1
2018-06-03T09:22:07.954Z,88.7
2018-06-03T09:23:09.583Z,89.2
2018-06-03T09:24:11.205Z,88.0
2018-06-03T09:25:12.924Z,88.2
2018-06-03T09:26:14.548Z,86.9
2018-06-03T09:27:16.166Z,87.5
2018-06-03T09:28:17.802Z,87.1
2018-06-03T09:29:19.424Z,86.0
2018-06-03T09:30:21.056Z,86.1
2018-06-03T09:31:22.686Z,86.4
2018-06-03T09:32:24.310Z,87.1
2018-06-03T09:33:25.938Z,85.6
2018-06-03T09:34:27.564Z,86.1
2018-06-03T09:35:29.193Z,86.4
2018-06-03T09:36:30.860Z,87.5
2018-06-03T09:37:32.457Z,87.0
2018-06-03T09:38:34.078Z,88.0
2018-06-03T09:39:35.706Z,86.7
2018-06-03T09:40:37.339Z,84.8
2018-06-03T09:41:38.974Z,84.7
2018-06-03T09:42:40.809Z,84.5
2018-06-03T09:43:42.438Z,83.9
2018-06-03T09:44:44.069Z,81.5
2018-06-03T09:45:45.883Z,82.5
2018-06-03T09:46:47.661Z,84.3
2018-06-03T09:47:49.410Z,83.7
2018-06-03T09:48:51.159Z,83.9
2018-06-03T09:49:52.895Z,84.9
2018-06-03T09:50:54.532Z,84.0
2018-06-03T09:51:56.161Z,85.0
2018-06-03T09:52:57.793Z,80.3
2018-06-03T09:53:59.412Z,80.6
2018-06-03T09:55:01.045Z,81.6
2018-06-03T09:56:02.673Z,82.6
2018-06-03T09:57:04.303Z,82.5
2018-06-03T09:58:05.932Z,82.9
2018-06-03T09:59:07.561Z,82.9
2018-06-03T10:00:09.185Z,84.0
2018-06-03T10:01:10.820Z,83.6
2018-06-03T10:02:12.451Z,82.0
2018-06-03T10:03:14.074Z,81.0
2018-06-03T10:04:15.707Z,80.7
2018-06-03T10:05:17.340Z,79.9
2018-06-03T10:06:18.964Z,79.7
2018-06-03T10:07:20.594Z,79.9
2018-06-03T10:08:22.227Z,80.0
2018-06-03T10:09:23.854Z,79.9
2018-06-03T10:10:25.479Z,79.7
2018-06-03T10:11:27.146Z,79.7
2018-06-03T10:12:28.780Z,78.9
2018-06-03T10:13:31.745Z,79.1
2018-06-03T10:14:33.348Z,78.2
2018-06-03T10:15:34.988Z,76.9
2018-06-03T10:16:36.628Z,78.1
2018-06-03T10:17:38.274Z,76.5
2018-06-03T10:18:39.912Z,76.6
2018-06-03T10:19:41.560Z,76.3
2018-06-03T10:20:43.213Z,77.7
2018-06-03T10:21:44.844Z,76.4
2018-06-03T10:22:46.494Z,76.0
2018-06-03T10:23:48.135Z,76.1
2018-06-03T10:24:49.819Z,74.9
2018-06-03T10:25:51.458Z,75.1
2018-06-03T10:26:53.112Z,75.8
2018-06-03T10:27:54.764Z,74.7
2018-06-03T10:28:56.411Z,73.8
2018-06-03T10:29:58.058Z,75.0
2018-06-03T10:30:59.708Z,74.1
2018-06-03T10:32:01.350Z,73.4
2018-06-03T10:33:02.987Z,74.2
2018-06-03T10:34:04.646Z,73.1
2018-06-03T10:35:06.292Z,73.3
2018-06-03T10:36:07.937Z,73.1
2018-06-03T10:37:09.608Z,73.3
2018-06-03T10:38:11.241Z,74.5
2018-06-03T10:39:12.888Z,73.4
2018-06-03T10:40:14.548Z,72.0
2018-06-03T10:41:16.191Z,71.6
2018-06-03T10:42:17.848Z,70.3
2018-06-03T10:43:19.491Z,71.2
2018-06-03T10:44:21.132Z,70.3
2018-06-03T10:45:22.763Z,70.3
2018-06-03T10:46:24.394Z,70.9
2018-06-03T10:47:26.056Z,69.9
2018-06-03T10:48:27.696Z,70.6
2018-06-03T10:49:29.331Z,70.0
2018-06-03T10:50:30.959Z,69.6
2018-06-03T10:51:32.613Z,69.5
2018-06-03T10:52:34.339Z,69.8
2018-06-03T10:53:35.975Z,69.9
2018-06-03T10:54:37.759Z,70.5
2018-06-03T10:55:39.357Z,69.5
2018-06-03T10:56:41.010Z,68.8
2018-06-03T10:57:42.652Z,69.4
2018-06-03T10:58:44.292Z,69.2
2018-06-03T10:59:45.973Z,70.1
2018-06-03T11:00:47.601Z,70.2
2018-06-03T11:01:49.263Z,69.8
2018-06-03T11:02:50.919Z,70.5
2018-06-03T11:03:52.552Z,68.3
2018-06-03T11:04:54.260Z,69.6
2018-06-03T11:05:55.889Z,68.5
2018-06-03T11:06:57.523Z,68.6
2018-06-03T11:07:59.160Z,68.5
2018-06-03T11:09:00.790Z,67.8
2018-06-03T11:13:40.488Z,67.5
2018-06-03T11:14:42.223Z,66.7
2018-06-03T11:15:43.896Z,65.5
2018-06-03T11:16:45.539Z,65.1
2018-06-03T11:17:47.219Z,64.8
2018-06-03T11:18:49.459Z,65.1
2018-06-03T11:19:51.156Z,66.1
2018-06-03T11:20:52.810Z,65.2
2018-06-03T11:21:54.455Z,64.3
2018-06-03T11:22:56.124Z,63.0
2018-06-03T11:23:57.765Z,63.5
2018-06-03T11:24:59.428Z,63.5
2018-06-03T11:26:01.065Z,63.5
2018-06-03T11:27:02.706Z,63.0
2018-06-03T11:28:04.347Z,63.3
2018-06-03T11:29:05.999Z,62.6
2018-06-03T11:30:07.638Z,61.2
2018-06-03T11:31:09.281Z,60.1
2018-06-03T11:32:10.950Z,59.6
2018-06-03T11:33:12.603Z,59.2
2018-06-03T11:34:14.254Z,58.1
2018-06-03T11:35:15.991Z,57.2
2018-06-03T11:36:17.620Z,57.7
2018-06-03T11:37:19.262Z,57.0
2018-06-03T11:38:20.900Z,54.9
2018-06-03T11:39:22.542Z,54.2
2018-06-03T11:40:24.181Z,52.5
2018-06-03T11:41:25.839Z,54.9
2018-06-03T11:42:27.502Z,53.1
2018-06-03T11:43:29.156Z,53.9
2018-06-03T11:44:30.804Z,53.9
2018-06-03T11:45:32.459Z,55.2
2018-06-03T11:46:34.107Z,54.6
2018-06-03T11:47:35.759Z,53.0
2018-06-03T11:50:00.442Z,53.7
2018-06-03T11:51:02.095Z,54.2
2018-06-03T11:52:03.762Z,54.3
2018-06-03T11:53:05.413Z,54.3
2018-06-03T11:54:07.065Z,52.0
2018-06-03T11:55:08.701Z,51.6
2018-06-03T11:56:10.337Z,51.0
2018-06-03T11:57:11.986Z,51.5
2018-06-03T11:58:13.637Z,50.5
2018-06-03T11:59:15.323Z,50.8
2018-06-03T12:00:16.968Z,48.8
2018-06-03T12:01:18.690Z,49.9
2018-06-03T12:02:20.355Z,49.2
2018-06-03T12:03:21.992Z,47.9
2018-06-03T12:04:23.631Z,48.3
2018-06-03T12:05:25.271Z,47.1
2018-06-03T12:06:26.905Z,46.3
2018-06-03T12:07:28.546Z,46.6
2018-06-03T12:08:30.183Z,45.7
2018-06-03T12:09:31.828Z,43.4
2018-06-03T12:10:33.465Z,42.6
2018-06-03T12:11:35.115Z,42.4
2018-06-03T12:12:36.755Z,41.2
2018-06-03T12:13:38.397Z,41.3
2018-06-03T12:14:40.029Z,41.9
2018-06-03T12:15:41.673Z,41.8
2018-06-03T12:16:43.310Z,43.2
2018-06-03T12:17:44.957Z,42.6
2018-06-03T12:18:46.604Z,42.4
2018-06-03T12:19:48.243Z,44.2
2018-06-03T12:20:49.882Z,44.2
2018-06-03T12:21:51.525Z,45.4
2018-06-03T12:22:53.164Z,44.0
2018-06-03T12:23:54.805Z,45.2
2018-06-03T12:24:56.453Z,44.3
2018-06-03T12:25:58.089Z,45.6
2018-06-03T12:26:59.726Z,45.0
2018-06-03T12:28:01.368Z,46.1
2018-06-03T12:29:03.002Z,46.0
2018-06-03T12:30:04.645Z,46.5
2018-06-03T12:31:06.282Z,47.6
2018-06-03T12:32:07.928Z,47.2
2018-06-03T12:33:09.564Z,49.3
2018-06-03T12:34:11.202Z,49.8
2018-06-03T12:35:12.833Z,49.6
2018-06-03T12:36:14.470Z,51.4
2018-06-03T12:37:16.104Z,51.0
2018-06-03T12:38:17.741Z,52.3
2018-06-03T12:39:19.373Z,52.7
2018-06-03T12:40:21.014Z,53.3
2018-06-03T12:41:22.641Z,54.2
2018-06-03T12:42:24.284Z,54.0
2018-06-03T12:43:25.906Z,55.2
2018-06-03T12:44:27.545Z,54.8
2018-06-03T12:45:29.173Z,55.1
2018-06-03T12:46:30.810Z,55.8
2018-06-03T12:47:32.448Z,56.8
2018-06-03T12:48:34.077Z,57.2
2018-06-03T12:49:35.700Z,58.4
2018-06-03T12:50:37.333Z,58.9
2018-06-03T12:51:38.962Z,59.4
2018-06-03T12:52:40.598Z,60.5
2018-06-03T12:53:42.223Z,61.4
2018-06-03T12:54:43.857Z,61.9
2018-06-03T12:55:45.487Z,62.1
2018-06-03T12:56:47.117Z,62.6
2018-06-03T12:57:48.748Z,62.8
2018-06-03T12:58:50.367Z,62.9
2018-06-03T12:59:52.002Z,62.6
2018-06-03T13:00:53.643Z,62.8
2018-06-03T13:01:55.270Z,62.5
2018-06-03T13:02:56.897Z,62.3
2018-06-03T13:03:58.532Z,63.4
2018-06-03T13:05:00.162Z,62.0
2018-06-03T13:06:01.798Z,61.9
2018-06-03T13:07:03.424Z,62.5
2018-06-03T13:08:05.055Z,62.2
2018-06-03T13:09:06.689Z,62.9
2018-06-03T13:10:08.320Z,63.0
2018-06-03T13:11:09.943Z,61.7
2018-06-03T13:12:11.576Z,61.7
2018-06-03T13:13:13.212Z,62.0
2018-06-03T13:14:14.839Z,62.6
2018-06-03T13:15:16.471Z,62.2
2018-06-03T13:16:18.104Z,62.7
2018-06-03T13:17:19.779Z,63.2
2018-06-03T13:18:21.360Z,63.6
2018-06-03T13:19:22.987Z,60.7
2018-06-03T13:20:24.621Z,61.4
2018-06-03T13:21:26.247Z,61.7
2018-06-03T13:22:27.885Z,61.7
2018-06-03T13:23:29.512Z,60.8
2018-06-03T13:24:31.141Z,59.6
2018-06-03T13:25:32.771Z,60.0
2018-06-03T13:26:34.406Z,59.2
2018-06-03T13:27:36.034Z,58.6
2018-06-03T13:28:37.669Z,57.3
2018-06-03T13:29:39.298Z,57.4
2018-06-03T13:30:40.937Z,57.3
2018-06-03T13:31:42.562Z,57.0